Time;durP1;ratioP1;P1;durP2;ratioP2;P2;SDS_P1;SDS_P2;PMS_P1;PMS_P2;Temp;Humidity;BMP_temperature;BMP_pressure;BME280_temperature;BME280_humidity;BME280_pressure;Samples;Min_cycle;Max_cycle;Signal;HPM_P1;HPM_P2
2023/05/09 00:01:58;;;;;;;3.30;2.13;;;;;;;;;;5077738;28;20483;-68
2023/05/09 00:04:27;;;;;;;3.90;2.70;;;;;;;;;;5077208;28;20824;-68
2023/05/09 00:06:56;;;;;;;4.20;2.07;;;;;;;;;;5078891;28;20472;-68
2023/05/09 00:09:24;;;;;;;3.13;1.93;;;;;;;;;;5078632;28;20499;-69
2023/05/09 00:11:53;;;;;;;5.47;2.30;;;;;;;;;;5079516;28;20441;-68
2023/05/09 00:14:23;;;;;;;3.57;2.07;;;;;;;;;;5078655;28;20453;-68
2023/05/09 00:16:52;;;;;;;4.40;2.63;;;;;;;;;;5078137;28;20953;-69
2023/05/09 00:19:20;;;;;;;3.37;2.13;;;;;;;;;;5078554;28;20540;-69
2023/05/09 00:21:49;;;;;;;5.90;2.20;;;;;;;;;;5083112;28;20463;-69
2023/05/09 00:24:17;;;;;;;4.30;2.30;;;;;;;;;;5098160;28;20479;-70
2023/05/09 00:26:46;;;;;;;5.07;2.33;;;;;;;;;;5097811;28;20459;-69
2023/05/09 00:29:14;;;;;;;3.90;2.30;;;;;;;;;;5098896;28;20494;-68
2023/05/09 00:31:48;;;;;;;5.30;2.30;;;;;;;;;;5098046;28;20862;-70
2023/05/09 00:34:17;;;;;;;4.40;2.73;;;;;;;;;;5097505;28;20451;-68
2023/05/09 00:36:45;;;;;;;4.27;2.70;;;;;;;;;;5096114;28;20480;-68
2023/05/09 00:39:13;;;;;;;5.00;2.50;;;;;;;;;;5097333;28;20456;-69
2023/05/09 00:41:42;;;;;;;4.33;2.80;;;;;;;;;;5098473;28;20463;-69
2023/05/09 00:44:14;;;;;;;7.40;2.40;;;;;;;;;;5096388;28;20537;-69
2023/05/09 00:46:43;;;;;;;4.30;2.30;;;;;;;;;;5091897;28;20469;-69
2023/05/09 00:49:13;;;;;;;6.17;3.23;;;;;;;;;;5095017;28;20491;-69
2023/05/09 00:51:51;;;;;;;5.37;2.40;;;;;;;;;;5099558;28;20449;-68
2023/05/09 00:54:20;;;;;;;7.10;2.43;;;;;;;;;;5098305;28;20831;-70
2023/05/09 00:56:53;;;;;;;4.47;2.50;;;;;;;;;;5098850;28;20513;-69
2023/05/09 00:59:25;;;;;;;8.07;2.83;;;;;;;;;;5100434;28;20501;-70
2023/05/09 01:01:55;;;;;;;6.43;2.03;;;;;;;;;;5088513;28;20481;-70
2023/05/09 01:04:25;;;;;;;3.97;2.20;;;;;;;;;;5078434;28;20453;-69
2023/05/09 01:06:58;;;;;;;5.50;2.47;;;;;;;;;;5079385;28;20453;-68
2023/05/09 01:09:44;;;;;;;3.23;2.47;;;;;;;;;;5090176;28;20559;-67
2023/05/09 01:12:17;;;;;;;3.10;2.00;;;;;;;;;;5099162;28;20488;-68
2023/05/09 01:14:52;;;;;;;3.77;2.30;;;;;;;;;;5092677;28;20460;-69
2023/05/09 01:17:27;;;;;;;3.40;2.60;;;;;;;;;;5097863;28;20462;-68
2023/05/09 01:20:11;;;;;;;4.27;2.90;;;;;;;;;;5098939;28;20723;-70
2023/05/09 01:22:49;;;;;;;6.50;2.70;;;;;;;;;;5099232;28;20455;-68
2023/05/09 01:25:37;;;;;;;3.97;2.50;;;;;;;;;;5096200;28;20469;-69
2023/05/09 01:28:12;;;;;;;4.20;2.47;;;;;;;;;;5099168;28;20497;-68
2023/05/09 01:31:04;;;;;;;4.77;2.37;;;;;;;;;;5081475;28;20443;-68
2023/05/09 01:33:36;;;;;;;5.13;3.20;;;;;;;;;;5096039;28;20520;-69
2023/05/09 01:36:06;;;;;;;5.17;2.50;;;;;;;;;;5098830;28;20450;-69
2023/05/09 01:38:40;;;;;;;4.30;2.63;;;;;;;;;;5085445;28;20481;-69
2023/05/09 01:41:25;;;;;;;6.23;2.53;;;;;;;;;;5090093;28;20803;-69
2023/05/09 01:43:56;;;;;;;5.10;3.03;;;;;;;;;;5082109;28;20537;-69
2023/05/09 01:46:38;;;;;;;4.03;2.70;;;;;;;;;;5095351;28;20479;-70
2023/05/09 01:52:21;;;;;;;5.07;2.97;;;;;;;;;;5099107;28;20530;-69
2023/05/09 01:54:56;;;;;;;3.47;2.40;;;;;;;;;;5098084;28;20905;-67
2023/05/09 01:57:26;;;;;;;6.10;2.87;;;;;;;;;;5081811;28;20436;-70
2023/05/09 01:59:56;;;;;;;5.70;2.63;;;;;;;;;;5088401;28;20897;-69
2023/05/09 02:02:31;;;;;;;5.30;2.93;;;;;;;;;;5103206;28;20524;-69
2023/05/09 02:05:03;;;;;;;4.50;3.10;;;;;;;;;;5101570;28;20451;-68
2023/05/09 02:07:34;;;;;;;6.43;3.23;;;;;;;;;;5102127;28;20723;-69
2023/05/09 02:10:17;;;;;;;7.47;3.13;;;;;;;;;;5103218;28;20507;-68
2023/05/09 02:12:55;;;;;;;4.10;2.93;;;;;;;;;;5103346;28;20456;-69
2023/05/09 02:15:28;;;;;;;5.57;3.30;;;;;;;;;;5103061;28;20524;-69
2023/05/09 02:18:00;;;;;;;3.30;2.50;;;;;;;;;;5104108;28;20456;-70
2023/05/09 02:20:36;;;;;;;4.17;3.10;;;;;;;;;;5103662;28;20448;-68
2023/05/09 02:23:09;;;;;;;6.10;3.27;;;;;;;;;;5101828;28;20464;-69
2023/05/09 02:25:39;;;;;;;5.87;3.30;;;;;;;;;;5100583;28;20472;-69
2023/05/09 02:28:15;;;;;;;5.03;3.03;;;;;;;;;;5102495;28;20483;-69
2023/05/09 02:30:46;;;;;;;5.70;2.67;;;;;;;;;;5101528;28;20540;-68
2023/05/09 02:33:18;;;;;;;3.90;3.07;;;;;;;;;;5101926;28;20503;-68
2023/05/09 02:35:52;;;;;;;5.80;3.60;;;;;;;;;;5101111;28;20450;-68
2023/05/09 02:38:27;;;;;;;5.40;3.40;;;;;;;;;;5084006;28;20559;-70
2023/05/09 02:40:57;;;;;;;6.33;3.60;;;;;;;;;;5100832;28;20691;-69
2023/05/09 02:43:31;;;;;;;5.50;3.10;;;;;;;;;;5100322;28;20471;-69
2023/05/09 02:46:02;;;;;;;4.60;2.57;;;;;;;;;;5099423;28;20467;-69
2023/05/09 02:48:34;;;;;;;6.27;3.77;;;;;;;;;;5098737;28;20448;-68
2023/05/09 02:51:05;;;;;;;5.70;3.83;;;;;;;;;;5099928;28;20452;-70
2023/05/09 02:53:36;;;;;;;4.93;3.33;;;;;;;;;;5098410;28;20902;-69
2023/05/09 02:56:05;;;;;;;4.50;2.80;;;;;;;;;;5099202;28;20436;-69
2023/05/09 02:58:34;;;;;;;6.37;3.10;;;;;;;;;;5098120;28;20728;-69
2023/05/09 03:01:04;;;;;;;5.27;3.23;;;;;;;;;;5099375;28;20464;-69
2023/05/09 03:03:36;;;;;;;4.67;3.63;;;;;;;;;;5100379;28;20456;-69
2023/05/09 03:06:07;;;;;;;4.33;3.00;;;;;;;;;;5104766;28;20459;-69
2023/05/09 03:08:36;;;;;;;4.60;3.50;;;;;;;;;;5103107;28;20452;-69
2023/05/09 03:11:05;;;;;;;5.37;2.83;;;;;;;;;;5102603;28;20455;-68
2023/05/09 03:13:33;;;;;;;5.83;3.20;;;;;;;;;;5104421;28;20460;-68
2023/05/09 03:16:01;;;;;;;5.67;3.10;;;;;;;;;;5103013;28;20448;-68
2023/05/09 03:18:30;;;;;;;6.70;4.30;;;;;;;;;;5103401;28;20456;-69
2023/05/09 03:21:01;;;;;;;7.40;3.80;;;;;;;;;;5104371;28;20448;-69
2023/05/09 03:23:29;;;;;;;5.30;3.50;;;;;;;;;;5101393;28;20475;-69
2023/05/09 03:25:58;;;;;;;9.33;3.80;;;;;;;;;;5101771;28;20988;-69
2023/05/09 03:28:27;;;;;;;6.03;3.20;;;;;;;;;;5102325;28;20466;-68
2023/05/09 03:30:59;;;;;;;5.80;3.50;;;;;;;;;;5101016;28;20533;-69
2023/05/09 03:33:27;;;;;;;5.20;3.70;;;;;;;;;;5090746;28;20480;-70
2023/05/09 03:35:57;;;;;;;5.80;3.60;;;;;;;;;;5082892;28;20534;-70
2023/05/09 03:38:28;;;;;;;4.77;3.83;;;;;;;;;;5079985;28;20461;-68
2023/05/09 03:40:59;;;;;;;7.87;4.90;;;;;;;;;;5088434;28;20809;-69
2023/05/09 03:43:33;;;;;;;7.20;3.50;;;;;;;;;;5101909;28;20459;-68
2023/05/09 03:46:09;;;;;;;6.60;3.80;;;;;;;;;;5100016;28;20488;-68
2023/05/09 03:48:39;;;;;;;5.80;3.70;;;;;;;;;;5100974;28;20491;-70
2023/05/09 03:51:08;;;;;;;5.60;4.07;;;;;;;;;;5099577;28;20515;-69
2023/05/09 03:53:40;;;;;;;4.53;3.57;;;;;;;;;;5099389;28;20451;-69
2023/05/09 03:56:09;;;;;;;6.23;3.77;;;;;;;;;;5098629;28;20456;-67
2023/05/09 03:58:39;;;;;;;4.93;3.30;;;;;;;;;;5097636;28;20872;-69
2023/05/09 04:01:09;;;;;;;8.47;4.40;;;;;;;;;;5098539;28;20477;-69
2023/05/09 04:03:37;;;;;;;6.37;3.87;;;;;;;;;;5097081;28;20521;-68
2023/05/09 04:06:10;;;;;;;6.80;3.60;;;;;;;;;;5095477;28;20822;-69
2023/05/09 04:08:42;;;;;;;6.27;3.80;;;;;;;;;;5096050;28;20878;-69
2023/05/09 04:11:11;;;;;;;9.57;3.50;;;;;;;;;;5098895;28;20488;-68
2023/05/09 04:13:40;;;;;;;5.10;3.40;;;;;;;;;;5076374;28;20522;-68
2023/05/09 04:16:10;;;;;;;5.53;3.80;;;;;;;;;;5078366;28;20457;-68
2023/05/09 04:18:41;;;;;;;6.83;3.70;;;;;;;;;;5091010;28;20444;-68
2023/05/09 04:21:10;;;;;;;7.90;4.40;;;;;;;;;;5094957;28;20536;-68
2023/05/09 04:23:43;;;;;;;7.63;3.93;;;;;;;;;;5097476;28;20449;-68
2023/05/09 04:26:15;;;;;;;4.40;3.20;;;;;;;;;;5097281;28;20460;-68
2023/05/09 04:28:47;;;;;;;7.27;3.93;;;;;;;;;;5096424;28;20507;-68
2023/05/09 04:31:19;;;;;;;8.47;4.13;;;;;;;;;;5099094;28;20498;-67
2023/05/09 04:33:51;;;;;;;9.43;4.27;;;;;;;;;;5096698;28;20539;-68
2023/05/09 04:36:20;;;;;;;5.03;3.97;;;;;;;;;;5098031;28;20495;-69
2023/05/09 04:38:50;;;;;;;6.20;4.37;;;;;;;;;;5097968;28;20491;-68
2023/05/09 04:41:20;;;;;;;6.23;4.33;;;;;;;;;;5077852;28;20445;-69
2023/05/09 04:43:48;;;;;;;5.20;3.87;;;;;;;;;;5078107;28;21164;-68
2023/05/09 04:46:17;;;;;;;4.73;3.27;;;;;;;;;;5096377;28;20545;-68
2023/05/09 04:48:46;;;;;;;19.10;6.53;;;;;;;;;;5098890;28;20532;-69
2023/05/09 04:51:15;;;;;;;5.90;4.10;;;;;;;;;;5097132;28;20578;-69
2023/05/09 04:53:46;;;;;;;5.07;4.00;;;;;;;;;;5097045;28;20448;-69
2023/05/09 04:56:21;;;;;;;5.53;4.37;;;;;;;;;;5094949;28;20869;-68
2023/05/09 04:58:56;;;;;;;4.87;3.83;;;;;;;;;;5076074;28;20449;-69
2023/05/09 05:01:28;;;;;;;11.30;4.17;;;;;;;;;;5075267;28;20824;-69
2023/05/09 05:04:01;;;;;;;5.83;3.73;;;;;;;;;;5088970;28;20444;-69
2023/05/09 05:06:31;;;;;;;7.83;4.20;;;;;;;;;;5095835;28;20471;-69
2023/05/09 05:09:01;;;;;;;5.40;3.63;;;;;;;;;;5096653;28;20909;-69
2023/05/09 05:11:35;;;;;;;6.50;3.40;;;;;;;;;;5095877;28;20515;-68
2023/05/09 05:14:04;;;;;;;10.93;3.83;;;;;;;;;;5095459;28;20481;-69
2023/05/09 05:16:36;;;;;;;6.40;4.10;;;;;;;;;;5095050;28;20524;-68
2023/05/09 05:19:10;;;;;;;6.37;3.97;;;;;;;;;;5095560;28;20705;-67
2023/05/09 05:21:42;;;;;;;6.03;3.97;;;;;;;;;;5088639;28;20942;-68
2023/05/09 05:24:11;;;;;;;5.77;3.47;;;;;;;;;;5082686;28;20867;-68
2023/05/09 05:26:43;;;;;;;5.57;3.80;;;;;;;;;;5096257;28;20482;-69
2023/05/09 05:29:12;;;;;;;6.80;4.73;;;;;;;;;;5095841;28;20485;-68
2023/05/09 05:31:40;;;;;;;4.43;3.80;;;;;;;;;;5094128;28;20549;-70
2023/05/09 05:34:09;;;;;;;4.60;3.53;;;;;;;;;;5095311;28;20709;-69
2023/05/09 05:36:37;;;;;;;7.30;4.13;;;;;;;;;;5094956;28;20920;-70
2023/05/09 05:39:06;;;;;;;4.93;3.60;;;;;;;;;;5095621;28;20450;-68
2023/05/09 05:41:36;;;;;;;6.63;4.10;;;;;;;;;;5094234;28;20546;-68
2023/05/09 05:44:10;;;;;;;6.60;3.83;;;;;;;;;;5090666;28;20464;-68
2023/05/09 05:46:44;;;;;;;7.40;4.27;;;;;;;;;;5095842;28;20448;-70
2023/05/09 05:49:13;;;;;;;5.27;4.00;;;;;;;;;;5093423;28;20561;-68
2023/05/09 05:51:42;;;;;;;5.33;3.57;;;;;;;;;;5097673;28;20495;-68
2023/05/09 05:54:11;;;;;;;8.53;4.40;;;;;;;;;;5090105;28;20444;-68
2023/05/09 05:56:40;;;;;;;5.60;3.57;;;;;;;;;;5094711;28;20456;-68
2023/05/09 05:59:12;;;;;;;7.00;4.27;;;;;;;;;;5097918;28;20958;-70
2023/05/09 06:01:41;;;;;;;8.47;3.87;;;;;;;;;;5095165;28;20453;-68
2023/05/09 06:04:10;;;;;;;7.03;4.60;;;;;;;;;;5093402;28;20460;-69
2023/05/09 06:06:38;;;;;;;7.33;3.90;;;;;;;;;;5094993;28;20444;-69
2023/05/09 06:09:11;;;;;;;4.70;3.50;;;;;;;;;;5084340;28;20507;-68
2023/05/09 06:11:40;;;;;;;5.47;3.87;;;;;;;;;;5093959;28;20471;-68
2023/05/09 06:14:09;;;;;;;7.70;3.73;;;;;;;;;;5095973;28;20462;-67
2023/05/09 06:16:41;;;;;;;5.20;3.93;;;;;;;;;;5072824;28;20753;-68
2023/05/09 06:19:10;;;;;;;7.90;3.67;;;;;;;;;;5076525;28;20468;-68
2023/05/09 06:21:40;;;;;;;6.47;4.50;;;;;;;;;;5075773;28;20445;-68
2023/05/09 06:24:12;;;;;;;6.23;4.10;;;;;;;;;;5074371;28;20579;-68
2023/05/09 06:26:46;;;;;;;7.53;4.13;;;;;;;;;;5071867;28;20879;-68
2023/05/09 06:29:14;;;;;;;6.63;4.10;;;;;;;;;;5073650;28;20495;-69
2023/05/09 06:31:45;;;;;;;7.73;3.87;;;;;;;;;;5083637;28;20534;-69
2023/05/09 06:34:17;;;;;;;5.10;3.30;;;;;;;;;;5075459;28;20606;-69
2023/05/09 06:36:50;;;;;;;4.83;3.67;;;;;;;;;;5079673;28;20448;-69
2023/05/09 06:39:20;;;;;;;6.00;3.23;;;;;;;;;;5094405;28;20460;-69
2023/05/09 06:41:50;;;;;;;8.20;3.80;;;;;;;;;;5093661;28;21038;-70
2023/05/09 06:44:18;;;;;;;4.93;3.63;;;;;;;;;;5094449;28;20452;-70
2023/05/09 06:46:52;;;;;;;5.50;3.80;;;;;;;;;;5095136;28;20466;-69
2023/05/09 06:49:22;;;;;;;5.47;3.07;;;;;;;;;;5095080;28;20456;-70
2023/05/09 06:51:53;;;;;;;8.70;3.83;;;;;;;;;;5095581;28;20475;-69
2023/05/09 06:54:32;;;;;;;6.73;3.83;;;;;;;;;;5086028;28;20478;-70
2023/05/09 06:57:24;;;;;;;7.50;3.40;;;;;;;;;;5077104;28;20526;-69
2023/05/09 06:59:53;;;;;;;10.70;3.67;;;;;;;;;;5076272;28;20449;-68
2023/05/09 07:02:30;;;;;;;7.53;4.57;;;;;;;;;;5079320;28;20552;-67
2023/05/09 07:04:59;;;;;;;7.00;3.13;;;;;;;;;;5078978;28;20456;-69
2023/05/09 07:07:32;;;;;;;5.30;3.20;;;;;;;;;;5098912;28;20467;-69
2023/05/09 07:10:10;;;;;;;6.67;3.53;;;;;;;;;;5097543;28;20455;-70
2023/05/09 07:15:31;;;;;;;7.43;3.30;;;;;;;;;;5097022;28;20891;-70
2023/05/09 07:18:01;;;;;;;8.17;3.43;;;;;;;;;;5096677;28;20565;-77
2023/05/09 07:20:30;;;;;;;6.83;3.23;;;;;;;;;;5096962;28;20436;-68
2023/05/09 07:23:03;;;;;;;6.87;3.53;;;;;;;;;;5096102;28;20463;-68
2023/05/09 07:25:31;;;;;;;10.43;4.00;;;;;;;;;;5097172;28;20436;-68
2023/05/09 07:28:00;;;;;;;6.60;3.33;;;;;;;;;;5092850;28;20756;-68
2023/05/09 07:30:55;;;;;;;5.90;3.13;;;;;;;;;;5094743;28;20498;-69
2023/05/09 07:33:32;;;;;;;5.50;2.87;;;;;;;;;;5068784;28;20468;-68
2023/05/09 07:36:01;;;;;;;8.23;3.27;;;;;;;;;;5088940;28;20456;-69
2023/05/09 07:38:39;;;;;;;6.90;4.07;;;;;;;;;;5095531;28;20469;-71
2023/05/09 07:41:08;;;;;;;5.87;3.00;;;;;;;;;;5083295;28;20561;-70
2023/05/09 07:43:38;;;;;;;5.13;3.00;;;;;;;;;;5086133;28;20603;-69
2023/05/09 07:46:07;;;;;;;12.07;6.90;;;;;;;;;;5092636;28;20440;-67
2023/05/09 07:48:38;;;;;;;5.27;3.43;;;;;;;;;;5093159;28;20447;-67
2023/05/09 07:51:14;;;;;;;8.07;3.47;;;;;;;;;;5084867;28;21123;-69
2023/05/09 07:53:54;;;;;;;10.40;3.80;;;;;;;;;;5092232;28;20569;-68
2023/05/09 07:56:34;;;;;;;5.00;2.80;;;;;;;;;;5093697;28;20460;-67
2023/05/09 07:59:04;;;;;;;7.30;3.77;;;;;;;;;;5088699;28;20779;-68
2023/05/09 08:01:37;;;;;;;19.33;9.77;;;;;;;;;;5091828;28;20456;-69
2023/05/09 08:04:24;;;;;;;7.37;3.60;;;;;;;;;;5086050;28;20518;-68
2023/05/09 08:07:02;;;;;;;9.97;3.57;;;;;;;;;;5079482;28;20484;-68
2023/05/09 08:09:31;;;;;;;5.83;3.93;;;;;;;;;;5090783;28;20447;-68
2023/05/09 08:12:07;;;;;;;6.70;3.10;;;;;;;;;;5095229;28;20545;-69
2023/05/09 08:17:36;;;;;;;10.53;6.57;;;;;;;;;;5090088;28;20514;-70
2023/05/09 08:20:18;;;;;;;7.03;4.27;;;;;;;;;;5095654;28;20929;-68
2023/05/09 08:22:52;;;;;;;6.07;3.10;;;;;;;;;;5094779;28;20460;-68
2023/05/09 08:25:21;;;;;;;9.57;2.97;;;;;;;;;;5092480;28;20451;-68
2023/05/09 08:27:50;;;;;;;5.43;3.67;;;;;;;;;;5090056;28;20743;-68
2023/05/09 08:30:28;;;;;;;4.40;3.13;;;;;;;;;;5075497;28;20944;-68
2023/05/09 08:33:09;;;;;;;6.53;2.87;;;;;;;;;;5079579;28;20554;-68
2023/05/09 08:35:49;;;;;;;6.80;3.37;;;;;;;;;;5088060;28;21170;-70
2023/05/09 08:38:31;;;;;;;6.63;3.20;;;;;;;;;;5095215;28;20452;-68
2023/05/09 08:41:03;;;;;;;5.43;3.17;;;;;;;;;;5094976;28;20471;-69
2023/05/09 08:43:38;;;;;;;7.00;2.83;;;;;;;;;;5080956;28;20468;-69
2023/05/09 08:49:13;;;;;;;4.80;3.47;;;;;;;;;;5073540;28;20469;-68
2023/05/09 08:52:00;;;;;;;4.60;3.07;;;;;;;;;;5096081;28;21082;-69
2023/05/09 08:54:32;;;;;;;5.63;2.73;;;;;;;;;;5088488;28;20510;-68
2023/05/09 08:57:03;;;;;;;6.63;3.00;;;;;;;;;;5092342;28;20533;-68
2023/05/09 08:59:41;;;;;;;6.37;3.03;;;;;;;;;;5094822;28;20567;-70
2023/05/09 09:02:28;;;;;;;4.20;3.10;;;;;;;;;;5094296;28;20436;-69
2023/05/09 09:04:59;;;;;;;5.43;3.37;;;;;;;;;;5094690;28;20467;-69
2023/05/09 09:15:59;;;;;;;4.30;2.97;;;;;;;;;;5079939;28;20450;-68
2023/05/09 09:18:46;;;;;;;10.77;4.40;;;;;;;;;;5064773;28;20207;-70
2023/05/09 09:21:22;;;;;;;6.80;3.27;;;;;;;;;;5066551;28;20456;-69
2023/05/09 09:23:53;;;;;;;5.37;3.10;;;;;;;;;;5067227;28;20461;-70
2023/05/09 09:26:28;;;;;;;8.47;3.23;;;;;;;;;;5065571;28;20981;-70
2023/05/09 09:28:57;;;;;;;7.00;4.30;;;;;;;;;;5085395;28;20449;-73
2023/05/09 09:31:27;;;;;;;6.03;3.37;;;;;;;;;;5074923;28;20563;-70
2023/05/09 09:34:00;;;;;;;6.87;3.57;;;;;;;;;;5073954;28;20449;-69
2023/05/09 09:36:33;;;;;;;6.83;2.33;;;;;;;;;;5067836;28;20457;-69
2023/05/09 09:39:05;;;;;;;7.27;2.90;;;;;;;;;;5058970;28;20458;-70
2023/05/09 09:41:50;;;;;;;5.27;3.00;;;;;;;;;;5056396;28;20543;-70
2023/05/09 09:44:24;;;;;;;5.13;2.73;;;;;;;;;;5078585;28;20437;-69
2023/05/09 09:46:56;;;;;;;4.07;2.43;;;;;;;;;;5058504;28;20716;-71
2023/05/09 09:49:30;;;;;;;5.40;2.77;;;;;;;;;;5064602;28;20880;-69
2023/05/09 09:51:58;;;;;;;6.43;2.80;;;;;;;;;;5073272;28;20561;-68
2023/05/09 09:54:31;;;;;;;3.17;2.17;;;;;;;;;;5073410;28;20471;-70
2023/05/09 09:57:11;;;;;;;6.57;2.87;;;;;;;;;;5070061;28;20697;-69
2023/05/09 09:59:59;;;;;;;4.87;3.13;;;;;;;;;;5059429;28;20462;-69
2023/05/09 10:02:41;;;;;;;9.03;4.30;;;;;;;;;;5055467;28;20859;-68
2023/05/09 10:05:09;;;;;;;5.50;2.47;;;;;;;;;;5053460;28;20497;-69
2023/05/09 10:07:46;;;;;;;4.83;3.03;;;;;;;;;;5072118;28;20460;-70
2023/05/09 10:10:18;;;;;;;4.03;2.87;;;;;;;;;;5069500;28;20472;-70
2023/05/09 10:13:00;;;;;;;6.80;3.93;;;;;;;;;;5068487;28;20515;-69
2023/05/09 10:15:37;;;;;;;5.23;3.40;;;;;;;;;;5073651;28;20537;-69
2023/05/09 10:18:25;;;;;;;6.20;3.10;;;;;;;;;;5077176;28;20873;-71
2023/05/09 10:20:59;;;;;;;7.63;4.43;;;;;;;;;;5082650;28;20456;-71
2023/05/09 10:23:28;;;;;;;7.10;3.83;;;;;;;;;;5071292;28;20464;-71
2023/05/09 10:26:08;;;;;;;6.70;3.53;;;;;;;;;;5065079;28;20460;-70
2023/05/09 10:28:42;;;;;;;7.33;4.43;;;;;;;;;;5088807;28;20453;-70
2023/05/09 10:31:16;;;;;;;9.73;3.87;;;;;;;;;;5063723;28;20477;-72
2023/05/09 10:34:07;;;;;;;5.83;2.97;;;;;;;;;;5061561;28;20981;-70
2023/05/09 10:44:35;;;;;;;2.97;2.20;;;;;;;;;;5080277;28;20376;-69
2023/05/09 10:49:54;;;;;;;8.33;2.60;;;;;;;;;;5056849;28;20439;-71
2023/05/09 10:52:32;;;;;;;4.20;2.50;;;;;;;;;;5069766;28;20489;-70
2023/05/09 10:57:57;;;;;;;5.07;2.77;;;;;;;;;;5072410;28;20456;-71
2023/05/09 11:00:26;;;;;;;6.20;3.83;;;;;;;;;;5090795;28;20486;-71
2023/05/09 11:03:12;;;;;;;7.43;3.10;;;;;;;;;;5084633;28;20533;-70
2023/05/09 11:05:48;;;;;;;5.70;2.73;;;;;;;;;;5054119;28;20461;-71
2023/05/09 11:08:24;;;;;;;5.30;2.40;;;;;;;;;;5075835;28;20464;-71
2023/05/09 11:10:55;;;;;;;8.77;4.90;;;;;;;;;;5091098;28;20460;-70
2023/05/09 11:13:24;;;;;;;18.67;11.73;;;;;;;;;;5052635;28;20809;-71
2023/05/09 11:16:07;;;;;;;6.90;4.10;;;;;;;;;;5059300;28;20453;-70
2023/05/09 11:18:58;;;;;;;38.27;27.17;;;;;;;;;;5071363;28;20542;-71
2023/05/09 11:21:27;;;;;;;72.73;46.03;;;;;;;;;;5086749;28;20456;-70
2023/05/09 11:23:55;;;;;;;27.37;18.90;;;;;;;;;;5061125;28;20901;-71
2023/05/09 11:26:37;;;;;;;8.10;6.30;;;;;;;;;;5091727;28;20490;-69
2023/05/09 11:29:37;;;;;;;19.93;13.77;;;;;;;;;;5071279;28;20551;-73
2023/05/09 11:32:17;;;;;;;10.23;6.00;;;;;;;;;;5062958;28;20843;-71
2023/05/09 11:34:45;;;;;;;17.80;12.40;;;;;;;;;;5071095;28;20555;-69
2023/05/09 11:37:16;;;;;;;17.70;10.57;;;;;;;;;;5070250;28;20456;-71
2023/05/09 11:39:58;;;;;;;6.97;4.30;;;;;;;;;;5068603;28;20481;-71
2023/05/09 11:42:26;;;;;;;7.80;5.60;;;;;;;;;;5049648;28;20451;-72
2023/05/09 11:44:58;;;;;;;8.20;4.87;;;;;;;;;;5056948;28;21042;-70
2023/05/09 11:47:39;;;;;;;8.67;5.10;;;;;;;;;;5068667;28;20519;-71
2023/05/09 11:50:13;;;;;;;10.73;5.87;;;;;;;;;;5068851;28;20472;-71
2023/05/09 11:52:49;;;;;;;6.73;4.43;;;;;;;;;;5067845;28;20548;-71
2023/05/09 11:55:21;;;;;;;6.10;2.87;;;;;;;;;;5067644;28;20441;-71
2023/05/09 11:57:59;;;;;;;3.40;2.63;;;;;;;;;;5065025;28;20449;-71
2023/05/09 12:00:28;;;;;;;4.93;3.13;;;;;;;;;;5071628;28;20471;-71
2023/05/09 12:02:56;;;;;;;6.60;3.10;;;;;;;;;;5069824;28;20555;-70
2023/05/09 12:05:28;;;;;;;5.17;2.83;;;;;;;;;;5068392;28;20534;-71
2023/05/09 12:08:04;;;;;;;4.93;2.47;;;;;;;;;;5070538;28;21145;-71
2023/05/09 12:10:34;;;;;;;8.10;3.53;;;;;;;;;;5073715;28;20471;-72
2023/05/09 12:13:02;;;;;;;7.97;3.90;;;;;;;;;;5069959;28;20473;-70
2023/05/09 12:15:30;;;;;;;4.20;3.27;;;;;;;;;;5070258;28;20457;-70
2023/05/09 12:18:03;;;;;;;6.33;3.60;;;;;;;;;;5071440;28;20522;-71
2023/05/09 12:20:41;;;;;;;7.83;3.40;;;;;;;;;;5073050;28;20940;-70
2023/05/09 12:23:13;;;;;;;5.67;3.40;;;;;;;;;;5073280;28;20765;-71
2023/05/09 12:25:51;;;;;;;6.23;2.90;;;;;;;;;;5071668;28;20457;-70
2023/05/09 12:28:19;;;;;;;5.60;2.70;;;;;;;;;;5073668;28;20455;-71
2023/05/09 12:30:47;;;;;;;6.43;3.07;;;;;;;;;;5069848;28;20449;-71
2023/05/09 12:33:18;;;;;;;5.33;3.90;;;;;;;;;;5050333;28;20494;-72
2023/05/09 12:35:47;;;;;;;6.80;3.03;;;;;;;;;;5052645;28;20516;-70
2023/05/09 12:38:27;;;;;;;7.23;3.43;;;;;;;;;;5054081;28;20619;-70
2023/05/09 12:41:13;;;;;;;4.50;2.40;;;;;;;;;;5063407;28;20459;-71
2023/05/09 12:43:45;;;;;;;3.93;2.80;;;;;;;;;;5062146;28;20956;-71
2023/05/09 12:46:25;;;;;;;7.63;2.97;;;;;;;;;;5062698;28;20758;-71
2023/05/09 12:51:40;;;;;;;6.23;2.50;;;;;;;;;;5054229;28;20554;-70
2023/05/09 12:54:17;;;;;;;3.93;2.43;;;;;;;;;;5049476;28;20553;-70
2023/05/09 12:56:47;;;;;;;3.63;2.30;;;;;;;;;;5031187;28;20544;-71
2023/05/09 13:02:06;;;;;;;5.27;2.80;;;;;;;;;;5012627;28;20451;-70
2023/05/09 13:04:34;;;;;;;9.03;2.50;;;;;;;;;;5032744;28;20522;-71
2023/05/09 13:07:02;;;;;;;8.60;3.00;;;;;;;;;;5032664;28;20537;-70
2023/05/09 13:09:32;;;;;;;4.17;2.73;;;;;;;;;;5033386;28;20553;-71
2023/05/09 13:12:01;;;;;;;5.03;2.40;;;;;;;;;;5040331;28;20509;-71
2023/05/09 13:14:57;;;;;;;5.63;2.50;;;;;;;;;;5050529;28;20809;-71
2023/05/09 13:17:33;;;;;;;10.37;4.10;;;;;;;;;;4948795;28;20477;-72
2023/05/09 13:20:44;;;;;;;3.83;2.60;;;;;;;;;;5049775;28;20461;-72
2023/05/09 13:23:33;;;;;;;5.10;3.97;;;;;;;;;;5048523;28;20583;-71
2023/05/09 13:26:07;;;;;;;4.67;2.73;;;;;;;;;;5048576;28;20908;-71
2023/05/09 13:28:35;;;;;;;4.90;3.30;;;;;;;;;;5049968;28;20476;-71
2023/05/09 13:31:14;;;;;;;7.43;3.00;;;;;;;;;;5048304;28;20519;-71
2023/05/09 13:33:50;;;;;;;7.50;2.77;;;;;;;;;;5039416;28;20490;-71
2023/05/09 13:42:43;;;;;;;5.73;2.83;;;;;;;;;;5035571;28;20527;-73
2023/05/09 13:45:22;;;;;;;3.30;2.60;;;;;;;;;;5028723;28;20505;-70
2023/05/09 13:47:50;;;;;;;5.87;2.30;;;;;;;;;;5032272;28;20527;-70
2023/05/09 13:50:22;;;;;;;5.20;2.10;;;;;;;;;;5056301;28;20508;-71
2023/05/09 13:52:50;;;;;;;4.57;2.10;;;;;;;;;;5053454;28;20987;-71
2023/05/09 13:55:19;;;;;;;6.00;2.57;;;;;;;;;;5051578;28;20718;-70
2023/05/09 13:57:47;;;;;;;5.33;3.33;;;;;;;;;;5054467;28;20477;-71
2023/05/09 14:00:16;;;;;;;9.03;4.90;;;;;;;;;;5057432;28;20458;-71
2023/05/09 14:02:47;;;;;;;5.33;2.27;;;;;;;;;;5053475;28;20437;-71
2023/05/09 14:05:15;;;;;;;5.80;2.87;;;;;;;;;;5051780;28;20583;-70
2023/05/09 14:07:43;;;;;;;5.07;2.10;;;;;;;;;;5051917;28;20465;-72
2023/05/09 14:10:22;;;;;;;3.00;2.03;;;;;;;;;;5043757;28;20486;-72
2023/05/09 14:13:31;;;;;;;;;;;;;;;;;;;;;
2023/05/09 14:16:09;;;;;;;6.93;2.30;;;;;;;;;;5047950;28;20453;-70
2023/05/09 14:18:51;;;;;;;5.13;2.13;;;;;;;;;;5052376;28;20492;-70
2023/05/09 14:21:20;;;;;;;3.23;2.40;;;;;;;;;;5055647;28;20456;-71
2023/05/09 14:23:48;;;;;;;3.07;1.87;;;;;;;;;;5053480;28;20473;-69
2023/05/09 14:26:17;;;;;;;6.17;2.73;;;;;;;;;;5047229;28;20445;-70
2023/05/09 14:28:45;;;;;;;5.20;2.50;;;;;;;;;;5054806;28;20503;-72
2023/05/09 14:31:16;;;;;;;4.90;2.27;;;;;;;;;;5064013;28;20445;-72
2023/05/09 14:33:46;;;;;;;4.37;2.10;;;;;;;;;;5060834;28;20575;-72
2023/05/09 14:36:19;;;;;;;5.57;2.57;;;;;;;;;;5054600;28;20460;-72
2023/05/09 14:38:48;;;;;;;8.93;2.60;;;;;;;;;;5052835;28;20493;-71
2023/05/09 14:41:16;;;;;;;13.13;2.33;;;;;;;;;;5059499;28;20485;-72
2023/05/09 14:43:47;;;;;;;4.57;2.57;;;;;;;;;;5067240;28;20454;-71
2023/05/09 14:46:17;;;;;;;6.80;2.60;;;;;;;;;;5043589;28;20458;-71
2023/05/09 14:49:04;;;;;;;3.90;2.43;;;;;;;;;;5053410;28;20460;-72
2023/05/09 14:52:12;;;;;;;4.10;1.80;;;;;;;;;;5052964;28;20476;-71
2023/05/09 14:54:43;;;;;;;4.20;2.30;;;;;;;;;;5060920;28;20541;-71
2023/05/09 14:57:29;;;;;;;9.70;3.63;;;;;;;;;;5052333;28;20480;-71
2023/05/09 14:59:58;;;;;;;5.93;3.40;;;;;;;;;;5047738;28;20492;-71
2023/05/09 15:02:31;;;;;;;4.20;2.27;;;;;;;;;;5054517;28;20468;-71
2023/05/09 15:05:09;;;;;;;7.40;3.70;;;;;;;;;;5073254;28;20735;-71
2023/05/09 15:08:03;;;;;;;5.00;2.27;;;;;;;;;;5074459;28;20461;-72
2023/05/09 15:10:45;;;;;;;4.70;2.63;;;;;;;;;;5052449;28;20558;-69
2023/05/09 15:13:21;;;;;;;4.47;2.23;;;;;;;;;;5040260;28;20517;-72
2023/05/09 15:15:51;;;;;;;5.30;2.10;;;;;;;;;;5035049;28;20486;-70
2023/05/09 15:18:25;;;;;;;4.83;2.33;;;;;;;;;;5042872;28;20453;-71
2023/05/09 15:21:14;;;;;;;4.20;2.27;;;;;;;;;;5044105;28;20468;-71
2023/05/09 15:23:47;;;;;;;4.60;3.10;;;;;;;;;;5052362;28;20478;-71
2023/05/09 15:29:15;;;;;;;3.90;1.90;;;;;;;;;;5050089;28;20485;-72
2023/05/09 15:31:48;;;;;;;7.47;2.77;;;;;;;;;;5031769;28;20533;-71
2023/05/09 15:34:16;;;;;;;11.07;2.20;;;;;;;;;;5032825;28;20483;-70
2023/05/09 15:36:49;;;;;;;4.47;1.93;;;;;;;;;;5052138;28;20458;-71
2023/05/09 15:39:20;;;;;;;4.77;2.40;;;;;;;;;;5054797;28;20470;-71
2023/05/09 15:41:49;;;;;;;5.77;2.80;;;;;;;;;;5051898;28;20561;-72
2023/05/09 15:44:21;;;;;;;3.90;1.83;;;;;;;;;;5042346;28;20601;-70
2023/05/09 15:46:53;;;;;;;6.30;2.73;;;;;;;;;;5015403;28;20455;-71
2023/05/09 15:55:18;;;;;;;3.90;2.10;;;;;;;;;;4992939;28;20517;-71
2023/05/09 15:58:03;;;;;;;5.53;2.03;;;;;;;;;;5032931;28;20505;-71
2023/05/09 16:00:31;;;;;;;3.40;1.93;;;;;;;;;;5045123;28;20739;-71
2023/05/09 16:02:59;;;;;;;3.30;1.60;;;;;;;;;;5050635;28;20501;-70
2023/05/09 16:05:41;;;;;;;6.07;2.70;;;;;;;;;;5070242;28;20465;-72
2023/05/09 16:08:46;;;;;;;10.37;2.73;;;;;;;;;;5065157;28;20566;-70
2023/05/09 16:11:42;;;;;;;8.23;2.53;;;;;;;;;;5052933;28;20542;-71
2023/05/09 16:14:11;;;;;;;3.57;2.30;;;;;;;;;;5050849;28;20564;-70
2023/05/09 16:16:39;;;;;;;4.40;2.13;;;;;;;;;;5063659;28;20488;-70